sensor_id;sensor_type;location;lat;lon;timestamp;P1;durP1;ratioP1;P2;durP2;ratioP2
32196;SDS011;18697;42.770;23.400;2024-03-08T00:01:47;0.93;;;0.93;;
32196;SDS011;18697;42.770;23.400;2024-03-08T00:04:12;1.17;;;1.10;;
32196;SDS011;18697;42.770;23.400;2024-03-08T00:06:38;1.33;;;1.20;;
32196;SDS011;18697;42.770;23.400;2024-03-08T00:09:04;1.00;;;1.00;;
32196;SDS011;18697;42.770;23.400;2024-03-08T00:11:32;1.23;;;1.20;;
32196;SDS011;18697;42.770;23.400;2024-03-08T00:13:58;1.00;;;1.00;;
32196;SDS011;18697;42.770;23.400;2024-03-08T00:16:24;1.05;;;1.05;;
32196;SDS011;18697;42.770;23.400;2024-03-08T00:18:49;0.93;;;0.93;;
32196;SDS011;18697;42.770;23.400;2024-03-08T00:21:14;1.85;;;1.42;;
32196;SDS011;18697;42.770;23.400;2024-03-08T00:23:40;1.00;;;1.00;;
32196;SDS011;18697;42.770;23.400;2024-03-08T00:26:06;1.20;;;1.10;;
32196;SDS011;18697;42.770;23.400;2024-03-08T00:28:32;1.10;;;1.10;;
32196;SDS011;18697;42.770;23.400;2024-03-08T00:30:59;1.48;;;0.90;;
32196;SDS011;18697;42.770;23.400;2024-03-08T00:33:25;1.00;;;0.80;;
32196;SDS011;18697;42.770;23.400;2024-03-08T00:35:50;2.60;;;1.00;;
32196;SDS011;18697;42.770;23.400;2024-03-08T00:38:16;1.08;;;1.00;;
32196;SDS011;18697;42.770;23.400;2024-03-08T00:40:43;0.90;;;0.90;;
32196;SDS011;18697;42.770;23.400;2024-03-08T00:43:09;1.08;;;1.00;;
32196;SDS011;18697;42.770;23.400;2024-03-08T00:45:34;1.75;;;1.13;;
32196;SDS011;18697;42.770;23.400;2024-03-08T00:47:59;1.10;;;1.10;;
32196;SDS011;18697;42.770;23.400;2024-03-08T00:50:25;1.00;;;1.00;;
32196;SDS011;18697;42.770;23.400;2024-03-08T00:52:50;1.10;;;1.10;;
32196;SDS011;18697;42.770;23.400;2024-03-08T00:55:16;1.92;;;1.83;;
32196;SDS011;18697;42.770;23.400;2024-03-08T00:57:42;1.95;;;1.40;;
32196;SDS011;18697;42.770;23.400;2024-03-08T01:00:07;1.48;;;1.38;;
32196;SDS011;18697;42.770;23.400;2024-03-08T01:02:34;1.38;;;1.38;;
32196;SDS011;18697;42.770;23.400;2024-03-08T01:05:01;2.22;;;1.30;;
32196;SDS011;18697;42.770;23.400;2024-03-08T01:07:26;1.33;;;1.30;;
32196;SDS011;18697;42.770;23.400;2024-03-08T01:09:52;1.02;;;1.02;;
32196;SDS011;18697;42.770;23.400;2024-03-08T01:12:17;1.27;;;1.27;;
32196;SDS011;18697;42.770;23.400;2024-03-08T01:14:42;1.52;;;1.42;;
32196;SDS011;18697;42.770;23.400;2024-03-08T01:17:08;1.95;;;1.45;;
32196;SDS011;18697;42.770;23.400;2024-03-08T01:19:34;1.10;;;1.10;;
32196;SDS011;18697;42.770;23.400;2024-03-08T01:22:00;1.20;;;1.20;;
32196;SDS011;18697;42.770;23.400;2024-03-08T01:24:25;1.30;;;1.20;;
32196;SDS011;18697;42.770;23.400;2024-03-08T01:26:50;1.10;;;1.10;;
32196;SDS011;18697;42.770;23.400;2024-03-08T01:29:16;3.10;;;1.77;;
32196;SDS011;18697;42.770;23.400;2024-03-08T01:31:42;2.90;;;2.35;;
32196;SDS011;18697;42.770;23.400;2024-03-08T01:34:07;8.00;;;3.63;;
32196;SDS011;18697;42.770;23.400;2024-03-08T01:36:33;10.20;;;3.88;;
32196;SDS011;18697;42.770;23.400;2024-03-08T01:38:58;6.50;;;3.72;;
32196;SDS011;18697;42.770;23.400;2024-03-08T01:41:23;4.63;;;2.50;;
32196;SDS011;18697;42.770;23.400;2024-03-08T01:43:49;2.10;;;2.00;;
32196;SDS011;18697;42.770;23.400;2024-03-08T01:46:17;1.33;;;1.30;;
32196;SDS011;18697;42.770;23.400;2024-03-08T01:48:46;1.70;;;1.60;;
32196;SDS011;18697;42.770;23.400;2024-03-08T01:51:12;1.30;;;1.30;;
32196;SDS011;18697;42.770;23.400;2024-03-08T01:53:40;2.63;;;1.73;;
32196;SDS011;18697;42.770;23.400;2024-03-08T01:56:07;5.80;;;3.78;;
32196;SDS011;18697;42.770;23.400;2024-03-08T01:58:33;19.13;;;9.80;;
32196;SDS011;18697;42.770;23.400;2024-03-08T02:01:00;13.02;;;7.78;;
32196;SDS011;18697;42.770;23.400;2024-03-08T02:03:29;10.38;;;5.85;;
32196;SDS011;18697;42.770;23.400;2024-03-08T02:05:56;2.88;;;2.67;;
32196;SDS011;18697;42.770;23.400;2024-03-08T02:08:24;3.55;;;2.83;;
32196;SDS011;18697;42.770;23.400;2024-03-08T02:10:50;18.13;;;9.52;;
32196;SDS011;18697;42.770;23.400;2024-03-08T02:13:15;10.82;;;6.95;;
32196;SDS011;18697;42.770;23.400;2024-03-08T02:15:54;5.50;;;3.40;;
32196;SDS011;18697;42.770;23.400;2024-03-08T02:18:20;4.80;;;3.65;;
32196;SDS011;18697;42.770;23.400;2024-03-08T02:20:47;4.82;;;4.00;;
32196;SDS011;18697;42.770;23.400;2024-03-08T02:23:14;6.90;;;4.20;;
32196;SDS011;18697;42.770;23.400;2024-03-08T02:25:40;4.70;;;3.28;;
32196;SDS011;18697;42.770;23.400;2024-03-08T02:28:07;4.10;;;2.70;;
32196;SDS011;18697;42.770;23.400;2024-03-08T02:30:35;3.67;;;2.90;;
32196;SDS011;18697;42.770;23.400;2024-03-08T02:33:00;3.42;;;3.13;;
32196;SDS011;18697;42.770;23.400;2024-03-08T02:35:26;3.10;;;2.70;;
32196;SDS011;18697;42.770;23.400;2024-03-08T02:37:51;4.22;;;2.25;;
32196;SDS011;18697;42.770;23.400;2024-03-08T02:40:17;2.17;;;1.98;;
32196;SDS011;18697;42.770;23.400;2024-03-08T02:42:42;2.30;;;1.80;;
32196;SDS011;18697;42.770;23.400;2024-03-08T02:45:08;2.75;;;1.70;;
32196;SDS011;18697;42.770;23.400;2024-03-08T02:47:35;1.70;;;1.60;;
32196;SDS011;18697;42.770;23.400;2024-03-08T02:50:00;2.08;;;1.90;;
32196;SDS011;18697;42.770;23.400;2024-03-08T02:52:26;3.97;;;1.75;;
32196;SDS011;18697;42.770;23.400;2024-03-08T02:54:52;64.35;;;20.27;;
32196;SDS011;18697;42.770;23.400;2024-03-08T02:57:17;100.38;;;31.02;;
32196;SDS011;18697;42.770;23.400;2024-03-08T02:59:43;39.05;;;13.88;;
32196;SDS011;18697;42.770;23.400;2024-03-08T03:02:08;10.30;;;4.75;;
32196;SDS011;18697;42.770;23.400;2024-03-08T03:04:35;2.78;;;2.58;;
32196;SDS011;18697;42.770;23.400;2024-03-08T03:07:00;4.38;;;3.03;;
32196;SDS011;18697;42.770;23.400;2024-03-08T03:09:26;2.90;;;2.70;;
32196;SDS011;18697;42.770;23.400;2024-03-08T03:11:55;1.83;;;1.73;;
32196;SDS011;18697;42.770;23.400;2024-03-08T03:14:21;2.45;;;1.88;;
32196;SDS011;18697;42.770;23.400;2024-03-08T03:16:47;5.57;;;1.80;;
32196;SDS011;18697;42.770;23.400;2024-03-08T03:19:12;2.15;;;1.73;;
32196;SDS011;18697;42.770;23.400;2024-03-08T03:21:38;1.48;;;1.20;;
32196;SDS011;18697;42.770;23.400;2024-03-08T03:24:03;3.05;;;1.70;;
32196;SDS011;18697;42.770;23.400;2024-03-08T03:26:34;1.35;;;1.25;;
32196;SDS011;18697;42.770;23.400;2024-03-08T03:29:02;1.33;;;1.23;;
32196;SDS011;18697;42.770;23.400;2024-03-08T03:31:28;4.70;;;4.30;;
32196;SDS011;18697;42.770;23.400;2024-03-08T03:33:53;1.98;;;1.80;;
32196;SDS011;18697;42.770;23.400;2024-03-08T03:36:19;1.52;;;1.42;;
32196;SDS011;18697;42.770;23.400;2024-03-08T03:38:45;1.70;;;1.60;;
32196;SDS011;18697;42.770;23.400;2024-03-08T03:41:10;3.38;;;1.50;;
32196;SDS011;18697;42.770;23.400;2024-03-08T03:43:36;1.75;;;1.65;;
32196;SDS011;18697;42.770;23.400;2024-03-08T03:46:05;2.03;;;1.85;;
32196;SDS011;18697;42.770;23.400;2024-03-08T03:48:32;2.03;;;1.90;;
32196;SDS011;18697;42.770;23.400;2024-03-08T03:50:57;1.60;;;1.50;;
32196;SDS011;18697;42.770;23.400;2024-03-08T03:53:23;1.90;;;1.80;;
32196;SDS011;18697;42.770;23.400;2024-03-08T03:55:50;2.95;;;1.90;;
32196;SDS011;18697;42.770;23.400;2024-03-08T03:58:16;1.98;;;1.88;;
32196;SDS011;18697;42.770;23.400;2024-03-08T04:00:47;1.75;;;1.65;;
32196;SDS011;18697;42.770;23.400;2024-03-08T04:03:13;36.65;;;16.33;;
32196;SDS011;18697;42.770;23.400;2024-03-08T04:05:38;4.22;;;3.10;;
32196;SDS011;18697;42.770;23.400;2024-03-08T04:08:04;2.60;;;2.40;;
32196;SDS011;18697;42.770;23.400;2024-03-08T04:10:29;13.57;;;10.45;;
32196;SDS011;18697;42.770;23.400;2024-03-08T04:12:55;9.85;;;9.02;;
32196;SDS011;18697;42.770;23.400;2024-03-08T04:15:21;14.68;;;13.27;;
32196;SDS011;18697;42.770;23.400;2024-03-08T04:17:48;3.22;;;2.97;;
32196;SDS011;18697;42.770;23.400;2024-03-08T04:20:13;2.65;;;2.45;;
32196;SDS011;18697;42.770;23.400;2024-03-08T04:22:39;3.20;;;2.60;;
32196;SDS011;18697;42.770;23.400;2024-03-08T04:25:05;3.22;;;2.92;;
32196;SDS011;18697;42.770;23.400;2024-03-08T04:27:32;3.08;;;2.78;;
32196;SDS011;18697;42.770;23.400;2024-03-08T04:29:58;4.65;;;4.32;;
32196;SDS011;18697;42.770;23.400;2024-03-08T04:32:24;3.88;;;3.58;;
32196;SDS011;18697;42.770;23.400;2024-03-08T04:34:49;3.55;;;3.25;;
32196;SDS011;18697;42.770;23.400;2024-03-08T04:37:15;4.25;;;3.67;;
32196;SDS011;18697;42.770;23.400;2024-03-08T04:39:43;5.55;;;4.32;;
32196;SDS011;18697;42.770;23.400;2024-03-08T04:42:08;5.18;;;3.00;;
32196;SDS011;18697;42.770;23.400;2024-03-08T04:44:38;5.13;;;3.60;;
32196;SDS011;18697;42.770;23.400;2024-03-08T04:47:04;5.13;;;4.60;;
32196;SDS011;18697;42.770;23.400;2024-03-08T04:49:32;9.95;;;7.72;;
32196;SDS011;18697;42.770;23.400;2024-03-08T04:52:04;9.63;;;7.22;;
32196;SDS011;18697;42.770;23.400;2024-03-08T04:54:30;10.57;;;8.65;;
32196;SDS011;18697;42.770;23.400;2024-03-08T04:56:56;9.07;;;7.00;;
32196;SDS011;18697;42.770;23.400;2024-03-08T04:59:21;9.27;;;7.43;;
32196;SDS011;18697;42.770;23.400;2024-03-08T05:01:47;11.10;;;8.02;;
32196;SDS011;18697;42.770;23.400;2024-03-08T05:04:12;13.15;;;8.15;;
32196;SDS011;18697;42.770;23.400;2024-03-08T05:06:38;13.43;;;10.32;;
32196;SDS011;18697;42.770;23.400;2024-03-08T05:09:03;9.60;;;7.03;;
32196;SDS011;18697;42.770;23.400;2024-03-08T05:11:38;13.68;;;9.05;;
32196;SDS011;18697;42.770;23.400;2024-03-08T05:14:10;10.68;;;7.18;;
32196;SDS011;18697;42.770;23.400;2024-03-08T05:16:36;11.43;;;6.72;;
32196;SDS011;18697;42.770;23.400;2024-03-08T05:19:01;13.45;;;8.23;;
32196;SDS011;18697;42.770;23.400;2024-03-08T05:21:28;16.95;;;10.90;;
32196;SDS011;18697;42.770;23.400;2024-03-08T05:23:54;10.00;;;7.28;;
32196;SDS011;18697;42.770;23.400;2024-03-08T05:26:19;10.75;;;7.25;;
32196;SDS011;18697;42.770;23.400;2024-03-08T05:28:45;14.13;;;11.48;;
32196;SDS011;18697;42.770;23.400;2024-03-08T05:31:21;18.23;;;14.13;;
32196;SDS011;18697;42.770;23.400;2024-03-08T05:33:48;11.20;;;7.95;;
32196;SDS011;18697;42.770;23.400;2024-03-08T05:36:14;11.30;;;9.25;;
32196;SDS011;18697;42.770;23.400;2024-03-08T05:38:41;14.05;;;9.82;;
32196;SDS011;18697;42.770;23.400;2024-03-08T05:41:08;14.93;;;9.20;;
32196;SDS011;18697;42.770;23.400;2024-03-08T05:43:34;10.30;;;7.95;;
32196;SDS011;18697;42.770;23.400;2024-03-08T05:45:59;10.98;;;8.00;;
32196;SDS011;18697;42.770;23.400;2024-03-08T05:48:25;12.05;;;8.35;;
32196;SDS011;18697;42.770;23.400;2024-03-08T05:50:50;11.40;;;8.52;;
32196;SDS011;18697;42.770;23.400;2024-03-08T05:53:15;10.60;;;7.95;;
32196;SDS011;18697;42.770;23.400;2024-03-08T05:55:41;10.38;;;7.60;;
32196;SDS011;18697;42.770;23.400;2024-03-08T05:58:06;19.45;;;16.45;;
32196;SDS011;18697;42.770;23.400;2024-03-08T06:00:33;20.02;;;15.73;;
32196;SDS011;18697;42.770;23.400;2024-03-08T06:02:59;17.83;;;11.80;;
32196;SDS011;18697;42.770;23.400;2024-03-08T06:05:24;10.85;;;8.15;;
32196;SDS011;18697;42.770;23.400;2024-03-08T06:07:49;8.65;;;6.68;;
32196;SDS011;18697;42.770;23.400;2024-03-08T06:10:15;9.52;;;6.65;;
32196;SDS011;18697;42.770;23.400;2024-03-08T06:12:42;8.90;;;6.60;;
32196;SDS011;18697;42.770;23.400;2024-03-08T06:15:08;9.20;;;6.05;;
32196;SDS011;18697;42.770;23.400;2024-03-08T06:17:34;12.60;;;8.98;;
32196;SDS011;18697;42.770;23.400;2024-03-08T06:20:03;10.10;;;6.95;;
32196;SDS011;18697;42.770;23.400;2024-03-08T06:22:37;7.88;;;6.10;;
32196;SDS011;18697;42.770;23.400;2024-03-08T06:25:05;11.25;;;7.07;;
32196;SDS011;18697;42.770;23.400;2024-03-08T06:27:31;11.07;;;9.27;;
32196;SDS011;18697;42.770;23.400;2024-03-08T06:29:59;8.02;;;6.30;;
32196;SDS011;18697;42.770;23.400;2024-03-08T06:32:24;11.52;;;7.30;;
32196;SDS011;18697;42.770;23.400;2024-03-08T06:34:50;10.27;;;6.60;;
32196;SDS011;18697;42.770;23.400;2024-03-08T06:37:16;7.90;;;5.78;;
32196;SDS011;18697;42.770;23.400;2024-03-08T06:39:46;9.55;;;5.90;;
32196;SDS011;18697;42.770;23.400;2024-03-08T06:42:16;8.85;;;5.85;;
32196;SDS011;18697;42.770;23.400;2024-03-08T06:44:41;10.48;;;7.50;;
32196;SDS011;18697;42.770;23.400;2024-03-08T06:47:14;7.40;;;5.70;;
32196;SDS011;18697;42.770;23.400;2024-03-08T06:49:41;7.88;;;5.10;;
32196;SDS011;18697;42.770;23.400;2024-03-08T06:52:06;7.90;;;5.25;;
32196;SDS011;18697;42.770;23.400;2024-03-08T06:54:34;6.75;;;4.57;;
32196;SDS011;18697;42.770;23.400;2024-03-08T06:57:01;7.95;;;4.90;;
32196;SDS011;18697;42.770;23.400;2024-03-08T06:59:30;6.60;;;4.88;;
32196;SDS011;18697;42.770;23.400;2024-03-08T07:02:00;7.05;;;4.68;;
32196;SDS011;18697;42.770;23.400;2024-03-08T07:04:26;6.93;;;5.00;;
32196;SDS011;18697;42.770;23.400;2024-03-08T07:06:54;7.15;;;4.85;;
32196;SDS011;18697;42.770;23.400;2024-03-08T07:09:20;5.63;;;4.85;;
32196;SDS011;18697;42.770;23.400;2024-03-08T07:11:45;6.13;;;4.72;;
32196;SDS011;18697;42.770;23.400;2024-03-08T07:14:11;6.00;;;4.38;;
32196;SDS011;18697;42.770;23.400;2024-03-08T07:16:37;4.53;;;3.88;;
32196;SDS011;18697;42.770;23.400;2024-03-08T07:19:04;4.43;;;3.78;;
32196;SDS011;18697;42.770;23.400;2024-03-08T07:21:29;4.50;;;3.75;;
32196;SDS011;18697;42.770;23.400;2024-03-08T07:23:55;7.45;;;4.45;;
32196;SDS011;18697;42.770;23.400;2024-03-08T07:26:26;6.00;;;4.57;;
32196;SDS011;18697;42.770;23.400;2024-03-08T07:28:52;4.55;;;4.13;;
32196;SDS011;18697;42.770;23.400;2024-03-08T07:31:20;6.25;;;5.20;;
32196;SDS011;18697;42.770;23.400;2024-03-08T07:33:45;8.10;;;4.65;;
32196;SDS011;18697;42.770;23.400;2024-03-08T07:36:10;5.18;;;4.40;;
32196;SDS011;18697;42.770;23.400;2024-03-08T07:38:36;5.32;;;3.95;;
32196;SDS011;18697;42.770;23.400;2024-03-08T07:41:01;3.75;;;3.33;;
32196;SDS011;18697;42.770;23.400;2024-03-08T07:43:27;4.78;;;3.58;;
32196;SDS011;18697;42.770;23.400;2024-03-08T07:45:52;4.03;;;3.22;;
32196;SDS011;18697;42.770;23.400;2024-03-08T07:48:20;3.97;;;3.40;;
32196;SDS011;18697;42.770;23.400;2024-03-08T07:50:46;3.80;;;3.25;;
32196;SDS011;18697;42.770;23.400;2024-03-08T07:53:11;3.55;;;3.25;;
32196;SDS011;18697;42.770;23.400;2024-03-08T07:55:37;4.18;;;3.38;;
32196;SDS011;18697;42.770;23.400;2024-03-08T07:58:02;3.97;;;3.30;;
32196;SDS011;18697;42.770;23.400;2024-03-08T08:00:28;6.32;;;4.93;;
32196;SDS011;18697;42.770;23.400;2024-03-08T08:02:56;3.88;;;3.50;;
32196;SDS011;18697;42.770;23.400;2024-03-08T08:05:21;5.03;;;3.40;;
32196;SDS011;18697;42.770;23.400;2024-03-08T08:07:47;3.90;;;3.17;;
32196;SDS011;18697;42.770;23.400;2024-03-08T08:10:12;4.00;;;3.10;;
32196;SDS011;18697;42.770;23.400;2024-03-08T08:12:50;3.72;;;3.30;;
32196;SDS011;18697;42.770;23.400;2024-03-08T08:15:19;6.63;;;3.75;;
32196;SDS011;18697;42.770;23.400;2024-03-08T08:17:45;4.95;;;4.32;;
32196;SDS011;18697;42.770;23.400;2024-03-08T08:20:11;7.60;;;6.95;;
32196;SDS011;18697;42.770;23.400;2024-03-08T08:22:40;4.05;;;3.63;;
32196;SDS011;18697;42.770;23.400;2024-03-08T08:25:07;3.85;;;3.13;;
32196;SDS011;18697;42.770;23.400;2024-03-08T08:27:33;3.55;;;2.58;;
32196;SDS011;18697;42.770;23.400;2024-03-08T08:29:59;2.85;;;2.63;;
32196;SDS011;18697;42.770;23.400;2024-03-08T08:32:26;2.97;;;2.70;;
32196;SDS011;18697;42.770;23.400;2024-03-08T08:34:51;2.83;;;2.53;;
32196;SDS011;18697;42.770;23.400;2024-03-08T08:37:17;2.67;;;2.47;;
32196;SDS011;18697;42.770;23.400;2024-03-08T08:39:42;3.20;;;3.00;;
32196;SDS011;18697;42.770;23.400;2024-03-08T08:42:07;3.20;;;2.90;;
32196;SDS011;18697;42.770;23.400;2024-03-08T08:44:34;2.97;;;2.67;;
32196;SDS011;18697;42.770;23.400;2024-03-08T08:47:00;4.15;;;3.22;;
32196;SDS011;18697;42.770;23.400;2024-03-08T08:49:26;4.05;;;3.13;;
32196;SDS011;18697;42.770;23.400;2024-03-08T08:51:51;3.47;;;2.70;;
32196;SDS011;18697;42.770;23.400;2024-03-08T08:54:17;2.70;;;2.50;;
32196;SDS011;18697;42.770;23.400;2024-03-08T08:56:43;3.25;;;2.20;;
32196;SDS011;18697;42.770;23.400;2024-03-08T08:59:09;4.75;;;2.50;;
32196;SDS011;18697;42.770;23.400;2024-03-08T09:01:38;2.88;;;2.65;;
32196;SDS011;18697;42.770;23.400;2024-03-08T09:04:04;3.08;;;2.85;;
32196;SDS011;18697;42.770;23.400;2024-03-08T09:06:29;3.10;;;2.75;;
32196;SDS011;18697;42.770;23.400;2024-03-08T09:08:55;2.70;;;2.50;;
32196;SDS011;18697;42.770;23.400;2024-03-08T09:11:20;2.67;;;2.47;;
32196;SDS011;18697;42.770;23.400;2024-03-08T09:13:45;3.67;;;2.70;;
32196;SDS011;18697;42.770;23.400;2024-03-08T09:16:12;3.05;;;2.28;;
32196;SDS011;18697;42.770;23.400;2024-03-08T09:18:37;3.65;;;2.60;;
32196;SDS011;18697;42.770;23.400;2024-03-08T09:21:02;4.55;;;2.53;;
32196;SDS011;18697;42.770;23.400;2024-03-08T09:23:30;2.90;;;2.60;;
32196;SDS011;18697;42.770;23.400;2024-03-08T09:25:58;2.67;;;2.47;;
32196;SDS011;18697;42.770;23.400;2024-03-08T09:28:24;3.45;;;3.15;;
32196;SDS011;18697;42.770;23.400;2024-03-08T09:30:50;2.65;;;2.45;;
32196;SDS011;18697;42.770;23.400;2024-03-08T09:33:15;2.53;;;2.30;;
32196;SDS011;18697;42.770;23.400;2024-03-08T09:35:44;13.07;;;3.70;;
32196;SDS011;18697;42.770;23.400;2024-03-08T09:38:12;3.10;;;2.80;;
32196;SDS011;18697;42.770;23.400;2024-03-08T09:40:38;3.20;;;2.90;;
32196;SDS011;18697;42.770;23.400;2024-03-08T09:43:07;1.92;;;1.83;;
32196;SDS011;18697;42.770;23.400;2024-03-08T09:45:35;2.40;;;2.20;;
32196;SDS011;18697;42.770;23.400;2024-03-08T09:48:01;7.70;;;2.00;;
32196;SDS011;18697;42.770;23.400;2024-03-08T09:50:27;1.52;;;1.42;;
32196;SDS011;18697;42.770;23.400;2024-03-08T09:52:54;1.95;;;1.80;;
32196;SDS011;18697;42.770;23.400;2024-03-08T09:55:22;1.90;;;1.80;;
32196;SDS011;18697;42.770;23.400;2024-03-08T09:57:47;1.75;;;1.65;;
32196;SDS011;18697;42.770;23.400;2024-03-08T10:00:33;1.95;;;1.73;;
32196;SDS011;18697;42.770;23.400;2024-03-08T10:03:02;1.70;;;1.60;;
32196;SDS011;18697;42.770;23.400;2024-03-08T10:05:28;1.75;;;1.65;;
32196;SDS011;18697;42.770;23.400;2024-03-08T10:07:55;1.65;;;1.55;;
32196;SDS011;18697;42.770;23.400;2024-03-08T10:10:20;1.60;;;1.50;;
32196;SDS011;18697;42.770;23.400;2024-03-08T10:12:46;1.45;;;1.35;;
32196;SDS011;18697;42.770;23.400;2024-03-08T10:15:15;1.85;;;1.58;;
32196;SDS011;18697;42.770;23.400;2024-03-08T10:17:41;1.65;;;1.55;;
32196;SDS011;18697;42.770;23.400;2024-03-08T10:20:17;1.63;;;1.50;;
32196;SDS011;18697;42.770;23.400;2024-03-08T10:22:43;1.60;;;1.50;;
32196;SDS011;18697;42.770;23.400;2024-03-08T10:25:12;1.85;;;1.63;;
32196;SDS011;18697;42.770;23.400;2024-03-08T10:27:41;1.85;;;1.75;;
32196;SDS011;18697;42.770;23.400;2024-03-08T10:30:14;1.42;;;1.33;;
32196;SDS011;18697;42.770;23.400;2024-03-08T10:32:44;3.20;;;1.35;;
32196;SDS011;18697;42.770;23.400;2024-03-08T10:35:10;1.45;;;1.35;;
32196;SDS011;18697;42.770;23.400;2024-03-08T10:37:42;1.63;;;1.52;;
32196;SDS011;18697;42.770;23.400;2024-03-08T10:40:13;1.92;;;1.70;;
32196;SDS011;18697;42.770;23.400;2024-03-08T10:42:58;2.05;;;1.40;;
32196;SDS011;18697;42.770;23.400;2024-03-08T10:45:40;1.77;;;1.52;;
32196;SDS011;18697;42.770;23.400;2024-03-08T10:50:53;1.23;;;1.13;;
32196;SDS011;18697;42.770;23.400;2024-03-08T10:53:20;1.27;;;1.27;;
32196;SDS011;18697;42.770;23.400;2024-03-08T10:55:47;2.97;;;1.67;;
32196;SDS011;18697;42.770;23.400;2024-03-08T10:58:18;1.33;;;1.23;;
32196;SDS011;18697;42.770;23.400;2024-03-08T11:00:46;1.30;;;1.20;;
32196;SDS011;18697;42.770;23.400;2024-03-08T11:06:05;1.17;;;1.08;;
32196;SDS011;18697;42.770;23.400;2024-03-08T11:08:33;1.00;;;1.00;;
32196;SDS011;18697;42.770;23.400;2024-03-08T11:10:59;1.45;;;1.35;;
32196;SDS011;18697;42.770;23.400;2024-03-08T11:13:37;1.20;;;1.10;;
32196;SDS011;18697;42.770;23.400;2024-03-08T11:16:12;1.63;;;1.52;;
32196;SDS011;18697;42.770;23.400;2024-03-08T11:21:35;1.70;;;1.60;;
32196;SDS011;18697;42.770;23.400;2024-03-08T11:24:11;1.30;;;1.20;;
32196;SDS011;18697;42.770;23.400;2024-03-08T11:26:41;1.77;;;1.67;;
32196;SDS011;18697;42.770;23.400;2024-03-08T11:32:07;1.80;;;1.70;;
32196;SDS011;18697;42.770;23.400;2024-03-08T11:37:11;2.17;;;1.98;;
32196;SDS011;18697;42.770;23.400;2024-03-08T11:39:54;1.73;;;1.63;;
32196;SDS011;18697;42.770;23.400;2024-03-08T11:42:24;1.80;;;1.70;;
32196;SDS011;18697;42.770;23.400;2024-03-08T11:44:51;2.22;;;1.90;;
32196;SDS011;18697;42.770;23.400;2024-03-08T11:47:17;1.92;;;1.83;;
32196;SDS011;18697;42.770;23.400;2024-03-08T11:49:43;2.88;;;1.98;;
32196;SDS011;18697;42.770;23.400;2024-03-08T11:52:13;1.75;;;1.65;;
32196;SDS011;18697;42.770;23.400;2024-03-08T11:54:43;8.77;;;2.03;;
32196;SDS011;18697;42.770;23.400;2024-03-08T11:57:17;4.97;;;2.13;;
32196;SDS011;18697;42.770;23.400;2024-03-08T11:59:49;2.03;;;1.83;;
32196;SDS011;18697;42.770;23.400;2024-03-08T12:02:15;1.92;;;1.83;;
32196;SDS011;18697;42.770;23.400;2024-03-08T12:04:40;1.90;;;1.80;;
32196;SDS011;18697;42.770;23.400;2024-03-08T12:07:09;4.68;;;1.63;;
32196;SDS011;18697;42.770;23.400;2024-03-08T12:09:36;3.38;;;2.20;;
32196;SDS011;18697;42.770;23.400;2024-03-08T12:12:02;2.17;;;1.92;;
32196;SDS011;18697;42.770;23.400;2024-03-08T12:14:32;4.47;;;1.88;;
32196;SDS011;18697;42.770;23.400;2024-03-08T12:16:58;2.10;;;1.73;;
32196;SDS011;18697;42.770;23.400;2024-03-08T12:19:26;1.80;;;1.70;;
32196;SDS011;18697;42.770;23.400;2024-03-08T12:21:53;2.53;;;2.00;;
32196;SDS011;18697;42.770;23.400;2024-03-08T12:24:19;1.80;;;1.70;;
32196;SDS011;18697;42.770;23.400;2024-03-08T12:26:45;2.38;;;1.75;;
32196;SDS011;18697;42.770;23.400;2024-03-08T12:29:20;2.25;;;1.88;;
32196;SDS011;18697;42.770;23.400;2024-03-08T12:31:52;2.00;;;1.90;;
32196;SDS011;18697;42.770;23.400;2024-03-08T12:34:23;2.08;;;1.90;;
32196;SDS011;18697;42.770;23.400;2024-03-08T12:36:49;1.70;;;1.60;;
32196;SDS011;18697;42.770;23.400;2024-03-08T12:39:19;2.00;;;1.90;;
32196;SDS011;18697;42.770;23.400;2024-03-08T12:41:51;1.83;;;1.73;;
32196;SDS011;18697;42.770;23.400;2024-03-08T12:44:18;2.17;;;1.98;;
32196;SDS011;18697;42.770;23.400;2024-03-08T12:46:47;1.42;;;1.27;;
32196;SDS011;18697;42.770;23.400;2024-03-08T12:49:13;4.43;;;3.00;;
32196;SDS011;18697;42.770;23.400;2024-03-08T12:51:42;2.55;;;1.70;;
32196;SDS011;18697;42.770;23.400;2024-03-08T12:54:10;1.50;;;1.40;;
32196;SDS011;18697;42.770;23.400;2024-03-08T12:56:36;1.65;;;1.55;;
32196;SDS011;18697;42.770;23.400;2024-03-08T12:59:03;1.73;;;1.63;;
32196;SDS011;18697;42.770;23.400;2024-03-08T13:01:30;1.98;;;1.80;;
32196;SDS011;18697;42.770;23.400;2024-03-08T13:03:59;1.60;;;1.50;;
32196;SDS011;18697;42.770;23.400;2024-03-08T13:06:28;1.92;;;1.75;;
32196;SDS011;18697;42.770;23.400;2024-03-08T13:08:56;1.50;;;1.40;;
32196;SDS011;18697;42.770;23.400;2024-03-08T13:11:23;1.75;;;1.65;;
32196;SDS011;18697;42.770;23.400;2024-03-08T13:13:50;9.88;;;5.22;;
32196;SDS011;18697;42.770;23.400;2024-03-08T13:16:16;4.68;;;3.00;;
32196;SDS011;18697;42.770;23.400;2024-03-08T13:18:43;5.82;;;3.05;;
32196;SDS011;18697;42.770;23.400;2024-03-08T13:21:12;5.40;;;3.10;;
32196;SDS011;18697;42.770;23.400;2024-03-08T13:23:40;9.27;;;4.40;;
32196;SDS011;18697;42.770;23.400;2024-03-08T13:26:10;12.95;;;6.10;;
32196;SDS011;18697;42.770;23.400;2024-03-08T13:28:40;6.32;;;3.72;;
32196;SDS011;18697;42.770;23.400;2024-03-08T13:31:08;6.50;;;3.80;;
32196;SDS011;18697;42.770;23.400;2024-03-08T13:33:37;4.13;;;2.47;;
32196;SDS011;18697;42.770;23.400;2024-03-08T13:36:04;2.45;;;2.25;;
32196;SDS011;18697;42.770;23.400;2024-03-08T13:38:44;2.40;;;2.20;;
32196;SDS011;18697;42.770;23.400;2024-03-08T13:41:11;2.30;;;2.10;;
32196;SDS011;18697;42.770;23.400;2024-03-08T13:43:37;1.83;;;1.73;;
32196;SDS011;18697;42.770;23.400;2024-03-08T13:46:03;3.08;;;2.40;;
32196;SDS011;18697;42.770;23.400;2024-03-08T13:48:29;3.00;;;2.70;;
32196;SDS011;18697;42.770;23.400;2024-03-08T13:50:56;3.42;;;2.90;;
32196;SDS011;18697;42.770;23.400;2024-03-08T13:53:22;4.13;;;3.10;;
32196;SDS011;18697;42.770;23.400;2024-03-08T13:55:48;3.50;;;2.53;;
32196;SDS011;18697;42.770;23.400;2024-03-08T13:58:14;5.75;;;3.28;;
32196;SDS011;18697;42.770;23.400;2024-03-08T14:00:40;4.75;;;3.47;;
32196;SDS011;18697;42.770;23.400;2024-03-08T15:12:38;5.70;;;5.10;;
32196;SDS011;18697;42.770;23.400;2024-03-08T15:15:05;5.03;;;4.43;;
32196;SDS011;18697;42.770;23.400;2024-03-08T15:17:34;5.63;;;4.63;;
32196;SDS011;18697;42.770;23.400;2024-03-08T15:20:01;26.35;;;11.43;;
32196;SDS011;18697;42.770;23.400;2024-03-08T15:22:28;18.65;;;8.60;;
32196;SDS011;18697;42.770;23.400;2024-03-08T15:24:53;5.93;;;4.90;;
32196;SDS011;18697;42.770;23.400;2024-03-08T15:27:18;8.63;;;5.53;;
32196;SDS011;18697;42.770;23.400;2024-03-08T15:29:44;5.80;;;4.72;;
32196;SDS011;18697;42.770;23.400;2024-03-08T15:32:13;9.70;;;6.60;;
32196;SDS011;18697;42.770;23.400;2024-03-08T15:34:44;7.93;;;5.13;;
32196;SDS011;18697;42.770;23.400;2024-03-08T15:37:10;6.38;;;5.13;;
32196;SDS011;18697;42.770;23.400;2024-03-08T15:39:40;8.40;;;6.32;;
32196;SDS011;18697;42.770;23.400;2024-03-08T15:42:06;8.23;;;6.00;;
32196;SDS011;18697;42.770;23.400;2024-03-08T15:44:31;9.18;;;6.82;;
32196;SDS011;18697;42.770;23.400;2024-03-08T15:46:56;13.27;;;7.88;;
32196;SDS011;18697;42.770;23.400;2024-03-08T15:49:22;11.30;;;8.02;;
32196;SDS011;18697;42.770;23.400;2024-03-08T15:51:49;10.35;;;6.93;;
32196;SDS011;18697;42.770;23.400;2024-03-08T15:54:15;7.38;;;4.80;;